Latest Weather Observations for Port Kembla Harbour

IDN60801

Issued at 3:02 pm EST Tuesday 4 August 2015 (issued every 30 minutes, with the page automatically refreshed every 10 minutes)

About weather observations | Map of weather stations | Latest weather observations for NSW | Other Formats
Station Details ID: 068253 Name: PORT KEMBLA NTC AWS Lat: -34.47 Lon: 150.91 Height: 0.0 m
Data from the previous 72 hours. | See also: Recent months for locations in New South Wales
Date/Time
EST
Temp
°C
App
Temp
°C
Dew
Point
Rel
Hum
%
Delta-T
°C
Wind Press
QNH
hPa
Press
MSL
hPa
Rain
since 9 am
mm
Dir
 
Spd
km/h
Gust
km/h
Spd
kts
Gust
kts
04/03:00pm 11.6 - - - - ENE 11 17 6 9 1018.0 1018.0 -
04/02:30pm 11.4 - - - - E 9 15 5 8 1018.4 1018.4 -
04/02:00pm 11.3 - - - - E 9 17 5 9 1018.8 1018.8 -
04/01:30pm 11.4 - - - - E 6 13 3 7 1019.4 1019.4 -
04/01:00pm 11.2 - - - - ESE 7 13 4 7 1019.8 1019.8 -
04/12:30pm 11.2 - - - - ESE 9 15 5 8 1020.4 1020.4 -
04/12:00pm 11.1 - - - - SE 9 15 5 8 1021.0 1021.0 -
04/11:30am 11.0 - - - - SE 11 15 6 8 1021.5 1021.5 -
04/11:00am 11.0 - - - - S 7 13 4 7 1022.1 1022.1 -
04/10:30am 10.9 - - - - SSW 9 19 5 10 1022.5 1022.5 -
04/10:00am 10.3 - - - - WSW 13 20 7 11 1022.7 1022.7 -
04/09:30am 10.4 - - - - W 11 19 6 10 1022.6 1022.6 -
04/09:00am 10.0 - - - - W 11 17 6 9 1022.4 1022.4 -
04/08:30am 9.1 - - - - W 11 13 6 7 1022.4 1022.4 -
04/08:00am 8.8 - - - - W 9 11 5 6 1022.3 1022.3 -
04/07:30am 8.3 - - - - W 9 11 5 6 1022.2 1022.2 -
04/07:00am 8.0 - - - - W 11 13 6 7 1022.0 1022.0 -
04/06:30am 8.1 - - - - W 15 17 8 9 1021.7 1021.7 -
04/06:00am 8.5 - - - - SW 9 15 5 8 1021.3 1021.3 -
04/05:30am 8.7 - - - - WSW 11 13 6 7 1021.4 1021.4 -
04/05:00am 8.7 - - - - WSW 11 15 6 8 1021.2 1021.2 -
04/04:30am 8.6 - - - - WSW 13 17 7 9 1021.2 1021.2 -
04/04:00am 8.6 - - - - WSW 13 17 7 9 1021.0 1021.0 -
04/03:30am 8.3 - - - - WSW 13 19 7 10 1021.0 1021.0 -
04/03:00am 8.2 - - - - WSW 15 17 8 9 1020.9 1020.9 -
04/02:30am 8.1 - - - - WSW 11 13 6 7 1021.1 1021.1 -
04/02:00am 8.7 - - - - WSW 15 19 8 10 1021.2 1021.2 -
04/01:30am 9.1 - - - - WSW 19 24 10 13 1021.2 1021.2 -
04/01:00am 9.5 - - - - W 15 20 8 11 1021.2 1021.2 -
04/12:30am 9.4 - - - - W 11 15 6 8 1021.1 1021.1 -
04/12:00am 10.1 - - - - W 11 15 6 8 1021.1 1021.1 -
 
Date/Time
EST
Temp
°C
App
Temp
°C
Dew
Point
Rel
Hum
%
Delta-T
°C
Wind Press
QNH
hPa
Press
MSL
hPa
Rain
since 9 am
mm
Dir
 
Spd
km/h
Gust
km/h
Spd
kts
Gust
kts
03/11:30pm 9.9 - - - - W 7 9 4 5 1020.9 1020.9 -
03/11:00pm 9.8 - - - - WSW 9 13 5 7 1020.8 1020.8 -
03/10:30pm 10.4 - - - - WSW 6 9 3 5 1020.7 1020.7 -
03/10:00pm 10.2 - - - - WSW 7 13 4 7 1020.5 1020.5 -
03/09:30pm 11.1 - - - - SSW 6 11 3 6 1020.6 1020.6 -
03/09:00pm 11.2 - - - - SW 13 22 7 12 1020.3 1020.3 -
03/08:30pm 11.6 - - - - SSW 11 19 6 10 1020.2 1020.2 -
03/08:00pm 11.5 - - - - S 13 26 7 14 1020.0 1020.0 -
03/07:30pm 12.0 - - - - SSW 11 22 6 12 1019.3 1019.3 -
03/07:00pm 12.9 - - - - WSW 24 32 13 17 1018.9 1018.9 -
03/06:30pm 13.1 - - - - W 26 43 14 23 1017.9 1017.9 -
03/06:00pm 13.4 - - - - W 32 44 17 24 1016.9 1016.9 -
03/05:36pm 13.7 - - - - W 32 50 17 27 1016.4 1016.4 -
03/05:30pm 13.9 - - - - W 33 50 18 27 1016.3 1016.3 -
03/05:00pm 14.0 - - - - W 37 50 20 27 1015.4 1015.4 -
03/04:30pm 14.7 - - - - W 26 39 14 21 1015.1 1015.1 -
03/04:00pm 14.9 - - - - W 39 52 21 28 1014.6 1014.6 -
03/03:30pm 15.4 - - - - W 41 52 22 28 1014.5 1014.5 -
03/03:00pm 15.3 - - - - W 37 50 20 27 1013.9 1013.9 -
03/02:30pm 15.6 - - - - W 33 50 18 27 1013.2 1013.2 -
03/02:00pm 15.8 - - - - W 32 50 17 27 1013.0 1013.0 -
03/01:30pm 15.4 - - - - W 33 50 18 27 1012.8 1012.8 -
03/01:29pm 15.7 - - - - W 33 50 18 27 1012.8 1012.8 -
03/01:15pm 15.4 - - - - W 37 50 20 27 1012.8 1012.8 -
03/01:00pm 15.2 - - - - W 35 48 19 26 1012.8 1012.8 -
03/12:33pm 15.2 - - - - W 30 50 16 27 1012.6 1012.6 -
03/12:30pm 15.2 - - - - W 32 50 17 27 1012.6 1012.6 -
03/12:14pm 15.3 - - - - W 30 50 16 27 1012.8 1012.8 -
03/12:00pm 14.9 - - - - W 33 52 18 28 1013.2 1013.2 -
03/11:41am 15.0 - - - - W 30 48 16 26 1013.2 1013.2 -
03/11:30am 14.7 - - - - W 33 46 18 25 1013.3 1013.3 -
03/11:00am 14.6 - - - - WNW 39 52 21 28 1013.6 1013.6 -
03/10:35am 14.5 - - - - W 30 48 16 26 1013.7 1013.7 -
03/10:30am 14.3 - - - - W 28 39 15 21 1013.8 1013.8 -
03/10:10am 14.0 - - - - W 28 48 15 26 1014.0 1014.0 -
03/10:00am 13.9 - - - - W 33 44 18 24 1014.1 1014.1 -
03/09:30am 13.9 - - - - W 26 39 14 21 1013.9 1013.9 -
03/09:02am 13.6 - - - - W 30 48 16 26 1013.9 1013.9 -
03/09:00am 13.5 - - - - W 32 48 17 26 1013.9 1013.9 -
03/08:30am 13.3 - - - - W 24 41 13 22 1013.7 1013.7 -
03/08:00am 12.8 - - - - W 24 46 13 25 1013.4 1013.4 -
03/07:48am 12.7 - - - - W 17 43 9 23 1013.3 1013.3 -
03/07:30am 12.3 - - - - WSW 13 37 7 20 1013.4 1013.4 -
03/07:00am 12.4 - - - - WSW 13 35 7 19 1013.0 1013.0 -
03/06:30am 12.0 - - - - SSE 6 11 3 6 1012.7 1012.7 -
03/06:00am 11.7 - - - - SE 7 17 4 9 1012.4 1012.4 -
03/05:30am 11.5 - - - - ESE 6 13 3 7 1012.6 1012.6 -
03/05:00am 11.8 - - - - ESE 7 15 4 8 1012.4 1012.4 -
03/04:30am 11.8 - - - - S 6 11 3 6 1012.4 1012.4 -
03/04:00am 11.8 - - - - SE 6 15 3 8 1012.3 1012.3 -
03/03:30am 11.7 - - - - NNE 4 13 2 7 1012.4 1012.4 -
03/03:00am 11.6 - - - - SW 11 22 6 12 1012.7 1012.7 -
03/02:30am 11.6 - - - - SW 15 32 8 17 1013.3 1013.3 -
03/02:00am 11.3 - - - - WSW 22 35 12 19 1013.3 1013.3 -
03/01:30am 11.3 - - - - WSW 22 33 12 18 1013.5 1013.5 -
03/01:00am 11.5 - - - - WSW 15 24 8 13 1013.5 1013.5 -
03/12:30am 11.7 - - - - WSW 15 20 8 11 1013.4 1013.4 -
03/12:00am 12.2 - - - - WNW 15 26 8 14 1013.5 1013.5 -
 
Date/Time
EST
Temp
°C
App
Temp
°C
Dew
Point
Rel
Hum
%
Delta-T
°C
Wind Press
QNH
hPa
Press
MSL
hPa
Rain
since 9 am
mm
Dir
 
Spd
km/h
Gust
km/h
Spd
kts
Gust
kts
02/11:30pm 12.5 - - - - WSW 20 28 11 15 1013.6 1013.6 -
02/11:00pm 13.8 - - - - SW 7 15 4 8 1013.5 1013.5 -
02/10:30pm 15.0 - - - - WSW 20 32 11 17 1013.5 1013.5 -
02/10:19pm 15.0 - - - - W 30 50 16 27 1013.3 1013.3 -
02/10:00pm 14.9 - - - - W 35 48 19 26 1013.3 1013.3 -
02/09:30pm 15.4 - - - - WNW 41 52 22 28 1012.3 1012.3 -
02/09:25pm 15.3 - - - - WNW 43 52 23 28 1012.2 1012.2 -
02/09:00pm 15.9 - - - - WSW 32 50 17 27 1012.6 1012.6 -
02/08:56pm 16.1 - - - - WSW 28 46 15 25 1012.5 1012.5 -
02/08:30pm 16.8 - - - - SW 20 37 11 20 1012.3 1012.3 -
02/08:00pm 17.6 - - - - WNW 26 50 14 27 1011.1 1011.1 -
02/07:55pm 17.5 - - - - WNW 32 50 17 27 1011.1 1011.1 -
02/07:30pm 18.0 - - - - WNW 37 50 20 27 1011.0 1011.0 -
02/07:01pm 18.8 - - - - WNW 32 50 17 27 1010.7 1010.7 -
02/07:00pm 18.8 - - - - WNW 33 50 18 27 1010.7 1010.7 -
02/06:34pm 20.0 - - - - WNW 32 50 17 27 1010.4 1010.4 -
02/06:30pm 20.1 - - - - WNW 35 50 19 27 1010.3 1010.3 -
02/06:18pm 20.4 - - - - WNW 32 50 17 27 1010.0 1010.0 -
02/06:00pm 20.3 - - - - NW 30 41 16 22 1010.0 1010.0 -
02/05:30pm 20.9 - - - - W 30 46 16 25 1010.3 1010.3 -
02/05:08pm 21.6 - - - - WNW 28 46 15 25 1010.0 1010.0 -
02/05:00pm 21.7 - - - - WNW 19 32 10 17 1009.9 1009.9 -
02/04:30pm 21.6 - - - - NW 22 30 12 16 1009.1 1009.1 -
02/04:00pm 21.9 - - - - NW 20 30 11 16 1008.6 1008.6 -
02/03:30pm 22.5 - - - - NW 30 44 16 24 1008.7 1008.7 -
02/03:00pm 22.4 - - - - NW 32 46 17 25 1008.5 1008.5 -
02/02:30pm 22.5 - - - - NW 32 50 17 27 1008.4 1008.4 -
02/02:26pm 22.2 - - - - NW 30 50 16 27 1008.5 1008.5 -
02/02:00pm 21.7 - - - - NNW 30 43 16 23 1008.4 1008.4 -
02/01:44pm 21.1 - - - - NNW 28 50 15 27 1008.8 1008.8 -
02/01:30pm 21.4 - - - - NNW 30 44 16 24 1009.0 1009.0 -
02/01:17pm 21.3 - - - - NNW 24 46 13 25 1009.5 1009.5 -
02/01:00pm 17.9 - - - - NNW 22 37 12 20 1010.0 1010.0 -
02/12:46pm 20.8 - - - - N 24 50 13 27 1010.1 1010.1 -
02/12:30pm 16.4 - - - - NE 17 24 9 13 1010.7 1010.7 -
02/12:00pm 16.1 - - - - NE 11 17 6 9 1012.0 1012.0 -
02/11:30am 16.2 - - - - NE 11 17 6 9 1012.4 1012.4 -
02/11:00am 16.1 - - - - NE 9 15 5 8 1012.9 1012.9 -
02/10:30am 15.8 - - - - NE 11 15 6 8 1013.4 1013.4 -
02/10:00am 15.8 - - - - NE 11 17 6 9 1014.0 1014.0 -
02/09:30am 15.9 - - - - NE 6 9 3 5 1014.5 1014.5 -
02/09:00am 15.4 - - - - NE 9 13 5 7 1013.8 1013.8 -
02/08:30am 15.4 - - - - N 2 6 1 3 1014.7 1014.7 -
02/08:00am 13.2 - - - - W 11 15 6 8 1015.5 1015.5 -
02/07:30am 12.5 - - - - SW 11 13 6 7 1015.6 1015.6 -
02/07:00am 12.7 - - - - WSW 9 15 5 8 1015.5 1015.5 -
02/06:30am 13.3 - - - - WSW 6 7 3 4 1014.9 1014.9 -
02/06:00am 13.3 - - - - SSW 6 7 3 4 1014.9 1014.9 -
02/05:30am 13.7 - - - - SSW 4 6 2 3 1014.9 1014.9 -
02/05:00am 14.6 - - - - S 2 6 1 3 1015.0 1015.0 -
02/04:30am 13.9 - - - - SW 4 6 2 3 1015.1 1015.1 -
02/04:00am 14.7 - - - - SE 2 6 1 3 1014.7 1014.7 -
02/03:30am 14.3 - - - - SW 4 6 2 3 1015.0 1015.0 -
02/03:00am 14.7 - - - - SSW 6 7 3 4 1015.3 1015.3 -
02/02:30am 15.2 - - - - S 7 13 4 7 1015.4 1015.4 -
02/02:00am 15.3 - - - - S 7 13 4 7 1015.8 1015.8 -
02/01:30am 15.3 - - - - SSE 6 9 3 5 1015.9 1015.9 -

Other Formats:

Comma delimited format used in spreadsheet applications
http://www.bom.gov.au/fwo/IDN60801/IDN60801.95745.axf

JavaScript Object Notation format (JSON) in row-major order
http://www.bom.gov.au/fwo/IDN60801/IDN60801.95745.json